Time,TemperatureF,DewpointF,PressureIn,WindDirection,WindDirectionDegrees,WindSpeedMPH,WindSpeedGustMPH,Humidity,HourlyPrecipIn,Conditions,Clouds,dailyrainin,SoftwareType,DateUTC
2013-01-22 00:02:00,39.0,30.0,30.31,WNW,297,0.0,1.0,70,0.00,,,0.00,,2013-01-22 06:02:00,
2013-01-22 00:12:00,39.0,30.0,30.31,WNW,297,0.0,1.0,70,0.00,,,0.00,,2013-01-22 06:12:00,
2013-01-22 00:22:00,39.0,30.0,30.31,WNW,297,0.0,0.0,71,0.00,,,0.00,,2013-01-22 06:22:00,
2013-01-22 00:32:00,39.0,29.0,30.31,ENE,75,2.0,5.0,67,0.00,,,0.00,,2013-01-22 06:32:00,
2013-01-22 00:42:00,39.0,29.0,30.31,ENE,75,2.0,5.0,67,0.00,,,0.00,,2013-01-22 06:42:00,
2013-01-22 00:52:00,41.0,29.0,30.30,ENE,57,1.0,3.0,63,0.00,,,0.00,,2013-01-22 06:52:00,
2013-01-22 01:02:00,42.0,28.0,30.30,ENE,76,0.0,3.0,58,0.00,,,0.00,,2013-01-22 07:02:00,
2013-01-22 01:12:00,42.0,28.0,30.30,ENE,76,0.0,3.0,58,0.00,,,0.00,,2013-01-22 07:12:00,
2013-01-22 01:22:00,42.0,28.0,30.30,ENE,59,0.0,3.0,57,0.00,,,0.00,,2013-01-22 07:22:00,
2013-01-22 01:32:00,42.0,28.0,30.30,ENE,76,0.0,2.0,57,0.00,,,0.00,,2013-01-22 07:32:00,
2013-01-22 01:42:00,42.0,28.0,30.30,ENE,76,0.0,2.0,57,0.00,,,0.00,,2013-01-22 07:42:00,
2013-01-22 01:52:00,42.0,28.0,30.30,ENE,69,0.0,3.0,57,0.00,,,0.00,,2013-01-22 07:52:00,
2013-01-22 02:02:00,41.0,27.0,30.31,East,92,1.0,2.0,56,0.00,,,0.00,,2013-01-22 08:02:00,
2013-01-22 02:12:00,41.0,27.0,30.31,East,92,1.0,2.0,56,0.00,,,0.00,,2013-01-22 08:12:00,
2013-01-22 02:22:00,41.0,27.0,30.31,East,83,1.0,3.0,56,0.00,,,0.00,,2013-01-22 08:22:00,
2013-01-22 02:32:00,41.0,27.0,30.31,East,82,0.0,2.0,58,0.00,,,0.00,,2013-01-22 08:32:00,
2013-01-22 02:42:00,41.0,27.0,30.31,East,82,0.0,2.0,58,0.00,,,0.00,,2013-01-22 08:42:00,
2013-01-22 02:52:00,41.0,27.0,30.31,East,82,0.0,0.0,58,0.00,,,0.00,,2013-01-22 08:52:00,
2013-01-22 03:02:00,40.0,27.0,30.32,East,82,0.0,0.0,60,0.00,,,0.00,,2013-01-22 09:02:00,
2013-01-22 03:12:00,40.0,27.0,30.32,East,82,0.0,0.0,60,0.00,,,0.00,,2013-01-22 09:12:00,
2013-01-22 03:22:00,40.0,28.0,30.32,East,82,0.0,0.0,61,0.00,,,0.00,,2013-01-22 09:22:00,
2013-01-22 03:32:00,39.0,28.0,30.31,East,82,0.0,1.0,65,0.00,,,0.00,,2013-01-22 09:32:00,
2013-01-22 03:42:00,39.0,28.0,30.31,East,82,0.0,1.0,65,0.00,,,0.00,,2013-01-22 09:42:00,
2013-01-22 03:52:00,39.0,29.0,30.30,East,82,0.0,0.0,66,0.00,,,0.00,,2013-01-22 09:52:00,
2013-01-22 04:02:00,38.0,28.0,30.31,East,82,0.0,0.0,67,0.00,,,0.00,,2013-01-22 10:02:00,
2013-01-22 04:12:00,38.0,28.0,30.31,East,82,0.0,0.0,67,0.00,,,0.00,,2013-01-22 10:12:00,
2013-01-22 04:22:00,38.0,29.0,30.31,East,82,0.0,0.0,69,0.00,,,0.00,,2013-01-22 10:22:00,
2013-01-22 04:32:00,37.0,29.0,30.32,East,82,0.0,0.0,72,0.00,,,0.00,,2013-01-22 10:32:00,
2013-01-22 04:42:00,37.0,29.0,30.32,East,82,0.0,0.0,72,0.00,,,0.00,,2013-01-22 10:42:00,
2013-01-22 04:52:00,37.0,29.0,30.32,East,82,0.0,1.0,73,0.00,,,0.00,,2013-01-22 10:52:00,
2013-01-22 05:02:00,36.0,29.0,30.32,East,82,0.0,0.0,74,0.00,,,0.00,,2013-01-22 11:02:00,
2013-01-22 05:12:00,36.0,29.0,30.32,East,82,0.0,0.0,74,0.00,,,0.00,,2013-01-22 11:12:00,
2013-01-22 05:22:00,36.0,29.0,30.33,East,82,0.0,1.0,75,0.00,,,0.00,,2013-01-22 11:22:00,
2013-01-22 05:33:00,36.0,29.0,30.32,SE,141,0.0,0.0,76,0.00,,,0.00,,2013-01-22 11:33:00,
2013-01-22 05:42:00,36.0,29.0,30.32,SE,141,0.0,0.0,76,0.00,,,0.00,,2013-01-22 11:42:00,
2013-01-22 05:53:00,36.0,29.0,30.33,SE,142,0.0,0.0,76,0.00,,,0.00,,2013-01-22 11:53:00,
2013-01-22 06:03:00,36.0,29.0,30.34,SE,144,0.0,1.0,76,0.00,,,0.00,,2013-01-22 12:03:00,
2013-01-22 06:12:00,36.0,29.0,30.34,SE,144,0.0,1.0,76,0.00,,,0.00,,2013-01-22 12:12:00,
2013-01-22 06:23:00,36.0,29.0,30.34,SE,144,0.0,0.0,77,0.00,,,0.00,,2013-01-22 12:23:00,
2013-01-22 06:33:00,36.0,29.0,30.34,SE,144,0.0,0.0,77,0.00,,,0.00,,2013-01-22 12:33:00,
2013-01-22 06:43:00,36.0,29.0,30.35,SE,144,0.0,0.0,77,0.00,,,0.00,,2013-01-22 12:43:00,
2013-01-22 06:52:00,36.0,29.0,30.35,SE,144,0.0,0.0,77,0.00,,,0.00,,2013-01-22 12:52:00,
2013-01-22 07:03:00,36.0,29.0,30.36,SE,144,0.0,1.0,77,0.00,,,0.00,,2013-01-22 13:03:00,
2013-01-22 07:13:00,36.0,29.0,30.36,SE,144,0.0,1.0,77,0.00,,,0.00,,2013-01-22 13:13:00,
2013-01-22 07:23:00,37.0,30.0,30.36,SE,144,0.0,0.0,76,0.00,,,0.00,,2013-01-22 13:23:00,
2013-01-22 07:33:00,37.0,30.0,30.36,WNW,290,0.0,2.0,76,0.00,,,0.00,,2013-01-22 13:33:00,
2013-01-22 07:43:00,37.0,30.0,30.36,WNW,290,0.0,2.0,76,0.00,,,0.00,,2013-01-22 13:43:00,
2013-01-22 07:50:00,37.0,30.0,30.38,WNW,289,1.0,3.0,77,0.00,,,0.00,,2013-01-22 13:50:00,
2013-01-22 07:53:00,37.0,30.0,30.37,WNW,290,0.0,1.0,76,0.00,,,0.00,,2013-01-22 13:53:00,
2013-01-22 08:03:00,37.0,30.0,30.38,WNW,289,1.0,3.0,77,0.00,,,0.00,,2013-01-22 14:03:00,
2013-01-22 08:13:00,37.0,30.0,30.38,WNW,289,1.0,3.0,77,0.00,,,0.00,,2013-01-22 14:13:00,
2013-01-22 08:23:00,37.0,30.0,30.38,WNW,289,1.0,3.0,77,0.00,,,0.00,,2013-01-22 14:23:00,
2013-01-22 08:33:00,37.0,30.0,30.38,WNW,289,1.0,3.0,77,0.00,,,0.00,,2013-01-22 14:33:00,
2013-01-22 08:43:00,37.0,30.0,30.38,WNW,289,1.0,3.0,77,0.00,,,0.00,,2013-01-22 14:43:00,
2013-01-22 09:24:00,37.0,30.0,30.38,WNW,289,1.0,3.0,77,0.00,,,0.00,,2013-01-22 15:24:00,
2013-01-22 09:34:00,42.0,33.0,30.37,SSE,147,1.0,3.0,70,0.00,,,0.00,,2013-01-22 15:34:00,
2013-01-22 09:44:00,42.0,33.0,30.37,SSE,147,1.0,3.0,70,0.00,,,0.00,,2013-01-22 15:44:00,
2013-01-22 09:53:00,43.0,34.0,30.37,SSE,148,1.0,3.0,70,0.00,,,0.00,,2013-01-22 15:53:00,
2013-01-22 10:03:00,44.0,35.0,30.37,SSE,168,2.0,5.0,70,0.00,,,0.00,,2013-01-22 16:03:00,
2013-01-22 10:13:00,44.0,35.0,30.37,SSE,168,2.0,5.0,70,0.00,,,0.00,,2013-01-22 16:13:00,
2013-01-22 10:23:00,45.0,36.0,30.37,SSE,149,1.0,6.0,70,0.00,,,0.00,,2013-01-22 16:23:00,
2013-01-22 10:33:00,48.0,38.0,30.36,SSE,157,1.0,5.0,68,0.00,,,0.00,,2013-01-22 16:33:00,
2013-01-22 10:43:00,48.0,38.0,30.36,SSE,157,1.0,5.0,68,0.00,,,0.00,,2013-01-22 16:43:00,
2013-01-22 10:53:00,49.0,39.0,30.36,SSE,148,1.0,5.0,67,0.00,,,0.00,,2013-01-22 16:53:00,
2013-01-22 11:03:00,52.0,40.0,30.35,SSE,150,2.0,5.0,64,0.00,,,0.00,,2013-01-22 17:03:00,
2013-01-22 11:13:00,52.0,40.0,30.35,SSE,150,2.0,5.0,64,0.00,,,0.00,,2013-01-22 17:13:00,
2013-01-22 11:23:00,53.0,41.0,30.35,SSE,147,3.0,7.0,64,0.00,,,0.00,,2013-01-22 17:23:00,
2013-01-22 11:34:00,54.0,44.0,30.35,WSW,243,1.0,6.0,68,0.02,,,0.02,,2013-01-22 17:34:00,
2013-01-22 11:43:00,54.0,44.0,30.35,WSW,243,1.0,6.0,68,0.02,,,0.02,,2013-01-22 17:43:00,
2013-01-22 11:53:00,54.0,43.0,30.34,SSE,153,1.0,5.0,67,0.03,,,0.03,,2013-01-22 17:53:00,
2013-01-22 12:03:00,56.0,44.0,30.33,SSE,155,1.0,3.0,65,0.03,,,0.03,,2013-01-22 18:03:00,
2013-01-22 12:13:00,56.0,44.0,30.33,SSE,155,1.0,3.0,65,0.03,,,0.03,,2013-01-22 18:13:00,
2013-01-22 12:23:00,57.0,45.0,30.33,SE,146,1.0,5.0,65,0.03,,,0.03,,2013-01-22 18:23:00,
2013-01-22 12:33:00,59.0,47.0,30.31,SW,224,1.0,3.0,65,0.01,,,0.03,,2013-01-22 18:33:00,
2013-01-22 12:43:00,59.0,47.0,30.31,SW,224,1.0,3.0,65,0.01,,,0.03,,2013-01-22 18:43:00,
2013-01-22 12:53:00,59.0,46.0,30.30,SE,145,0.0,6.0,63,0.00,,,0.03,,2013-01-22 18:53:00,
2013-01-22 13:03:00,60.0,47.0,30.29,SSE,156,1.0,8.0,63,0.00,,,0.03,,2013-01-22 19:03:00,
2013-01-22 13:13:00,60.0,47.0,30.29,SSE,156,1.0,8.0,63,0.00,,,0.03,,2013-01-22 19:13:00,
2013-01-22 13:23:00,60.0,47.0,30.29,SSE,147,2.0,6.0,61,0.00,,,0.03,,2013-01-22 19:23:00,
2013-01-22 13:33:00,60.0,47.0,30.29,WSW,253,0.0,2.0,61,0.00,,,0.03,,2013-01-22 19:33:00,
2013-01-22 13:43:00,60.0,47.0,30.29,WSW,253,0.0,2.0,61,0.00,,,0.03,,2013-01-22 19:43:00,
2013-01-22 13:53:00,60.0,47.0,30.29,SSE,161,1.0,5.0,61,0.00,,,0.03,,2013-01-22 19:53:00,
2013-01-22 14:03:00,60.0,47.0,30.27,SW,216,0.0,3.0,61,0.00,,,0.03,,2013-01-22 20:03:00,
2013-01-22 14:13:00,60.0,47.0,30.27,SW,216,0.0,3.0,61,0.00,,,0.03,,2013-01-22 20:13:00,
2013-01-22 14:23:00,61.0,47.0,30.27,West,279,0.0,2.0,61,0.00,,,0.03,,2013-01-22 20:23:00,
2013-01-22 14:33:00,62.0,47.0,30.25,South,171,0.0,3.0,58,0.00,,,0.03,,2013-01-22 20:33:00,
2013-01-22 14:43:00,62.0,47.0,30.25,South,171,0.0,3.0,58,0.00,,,0.03,,2013-01-22 20:43:00,
2013-01-22 14:53:00,63.0,48.0,30.25,SSE,149,2.0,7.0,57,0.00,,,0.03,,2013-01-22 20:53:00,
2013-01-22 15:03:00,63.0,48.0,30.24,SSW,207,1.0,3.0,57,0.00,,,0.03,,2013-01-22 21:03:00,
2013-01-22 15:13:00,63.0,48.0,30.24,SSW,207,1.0,3.0,57,0.00,,,0.03,,2013-01-22 21:13:00,
2013-01-22 15:22:00,63.0,48.0,30.24,SSE,164,1.0,3.0,57,0.00,,,0.03,,2013-01-22 21:22:00,
2013-01-22 15:33:00,64.0,48.0,30.24,SSE,150,2.0,6.0,57,0.00,,,0.03,,2013-01-22 21:33:00,
2013-01-22 15:43:00,64.0,48.0,30.24,SSE,150,2.0,6.0,57,0.00,,,0.03,,2013-01-22 21:43:00,
2013-01-22 15:52:00,64.0,48.0,30.24,SW,215,1.0,3.0,57,0.00,,,0.03,,2013-01-22 21:52:00,
2013-01-22 16:03:00,64.0,48.0,30.24,SSE,165,2.0,9.0,57,0.00,,,0.03,,2013-01-22 22:03:00,
2013-01-22 16:12:00,64.0,48.0,30.24,SSE,165,2.0,9.0,57,0.00,,,0.03,,2013-01-22 22:12:00,
2013-01-22 16:22:00,64.0,49.0,30.23,West,281,2.0,5.0,58,0.00,,,0.03,,2013-01-22 22:22:00,
2013-01-22 16:32:00,64.0,49.0,30.23,West,281,2.0,5.0,58,0.00,,,0.03,,2013-01-22 22:32:00,
2013-01-22 16:43:00,65.0,49.0,30.23,SW,221,1.0,5.0,57,0.00,,,0.03,,2013-01-22 22:43:00,
2013-01-22 16:53:00,65.0,49.0,30.23,SSE,159,1.0,6.0,57,0.00,,,0.03,,2013-01-22 22:53:00,
2013-01-22 17:03:00,65.0,49.0,30.23,South,176,0.0,3.0,57,0.00,,,0.03,,2013-01-22 23:03:00,
2013-01-22 17:12:00,65.0,49.0,30.23,South,176,0.0,3.0,57,0.00,,,0.03,,2013-01-22 23:12:00,
2013-01-22 17:23:00,64.0,48.0,30.23,SW,216,1.0,5.0,57,0.00,,,0.03,,2013-01-22 23:23:00,
2013-01-22 17:33:00,64.0,49.0,30.23,SE,144,0.0,5.0,58,0.00,,,0.03,,2013-01-22 23:33:00,
2013-01-22 17:43:00,64.0,49.0,30.23,SE,144,0.0,5.0,58,0.00,,,0.03,,2013-01-22 23:43:00,
2013-01-22 17:52:00,64.0,49.0,30.23,SSE,150,0.0,2.0,58,0.00,,,0.03,,2013-01-22 23:52:00,
2013-01-22 18:03:00,63.0,48.0,30.23,SSE,150,0.0,1.0,59,0.00,,,0.03,,2013-01-23 00:03:00,
2013-01-22 18:12:00,63.0,48.0,30.23,SSE,150,0.0,1.0,59,0.00,,,0.03,,2013-01-23 00:12:00,
2013-01-22 18:22:00,62.0,48.0,30.23,SSE,150,0.0,1.0,60,0.00,,,0.03,,2013-01-23 00:22:00,
2013-01-22 18:33:00,61.0,47.0,30.23,SSE,151,0.0,1.0,61,0.00,,,0.03,,2013-01-23 00:33:00,
2013-01-22 18:43:00,61.0,47.0,30.23,SSE,151,0.0,1.0,61,0.00,,,0.03,,2013-01-23 00:43:00,
2013-01-22 18:52:00,61.0,48.0,30.24,SSE,151,0.0,3.0,62,0.00,,,0.03,,2013-01-23 00:52:00,
2013-01-22 19:03:00,60.0,48.0,30.24,West,264,0.0,0.0,64,0.00,,,0.03,,2013-01-23 01:03:00,
2013-01-22 19:13:00,60.0,48.0,30.24,West,264,0.0,0.0,64,0.00,,,0.03,,2013-01-23 01:13:00,
2013-01-22 19:22:00,60.0,48.0,30.25,West,264,0.0,0.0,64,0.00,,,0.03,,2013-01-23 01:22:00,
2013-01-22 19:33:00,59.0,48.0,30.25,West,279,0.0,0.0,66,0.00,,,0.03,,2013-01-23 01:33:00,
2013-01-22 19:43:00,59.0,48.0,30.25,West,279,0.0,0.0,66,0.00,,,0.03,,2013-01-23 01:43:00,
2013-01-22 19:52:00,58.0,47.0,30.25,West,279,0.0,0.0,67,0.00,,,0.03,,2013-01-23 01:52:00,
2013-01-22 20:03:00,57.0,47.0,30.25,West,279,0.0,0.0,69,0.00,,,0.03,,2013-01-23 02:03:00,
2013-01-22 20:12:00,57.0,47.0,30.25,West,279,0.0,0.0,69,0.00,,,0.03,,2013-01-23 02:12:00,
2013-01-22 20:23:00,56.0,46.0,30.25,West,279,0.0,0.0,70,0.00,,,0.03,,2013-01-23 02:23:00,
2013-01-22 20:33:00,55.0,46.0,30.26,West,279,0.0,0.0,72,0.00,,,0.03,,2013-01-23 02:33:00,
2013-01-22 20:42:00,55.0,46.0,30.26,West,279,0.0,0.0,72,0.00,,,0.03,,2013-01-23 02:42:00,
2013-01-22 20:53:00,55.0,47.0,30.26,West,279,0.0,0.0,74,0.00,,,0.03,,2013-01-23 02:53:00,
2013-01-22 21:03:00,54.0,47.0,30.26,West,279,0.0,0.0,76,0.00,,,0.03,,2013-01-23 03:03:00,
2013-01-22 21:12:00,54.0,47.0,30.26,West,279,0.0,0.0,76,0.00,,,0.03,,2013-01-23 03:12:00,
2013-01-22 21:23:00,54.0,47.0,30.26,West,279,0.0,0.0,77,0.00,,,0.03,,2013-01-23 03:23:00,
2013-01-22 21:33:00,53.0,46.0,30.26,West,279,0.0,0.0,78,0.00,,,0.03,,2013-01-23 03:33:00,
2013-01-22 21:42:00,53.0,46.0,30.26,West,279,0.0,0.0,78,0.00,,,0.03,,2013-01-23 03:42:00,
2013-01-22 21:52:00,53.0,47.0,30.26,West,279,0.0,0.0,79,0.00,,,0.03,,2013-01-23 03:52:00,
2013-01-22 22:03:00,53.0,47.0,30.26,West,279,0.0,0.0,79,0.00,,,0.03,,2013-01-23 04:03:00,
2013-01-22 22:12:00,53.0,47.0,30.26,West,279,0.0,0.0,79,0.00,,,0.03,,2013-01-23 04:12:00,
2013-01-22 22:22:00,53.0,47.0,30.26,West,279,0.0,0.0,80,0.00,,,0.03,,2013-01-23 04:22:00,
2013-01-22 22:32:00,52.0,46.0,30.26,West,279,0.0,0.0,80,0.00,,,0.03,,2013-01-23 04:32:00,
2013-01-22 22:43:00,52.0,46.0,30.26,West,279,0.0,0.0,80,0.00,,,0.03,,2013-01-23 04:43:00,
2013-01-22 22:53:00,52.0,46.0,30.26,West,279,0.0,0.0,81,0.00,,,0.03,,2013-01-23 04:53:00,
2013-01-22 23:03:00,51.0,45.0,30.26,West,279,0.0,0.0,81,0.00,,,0.03,,2013-01-23 05:03:00,
2013-01-22 23:12:00,51.0,45.0,30.26,West,279,0.0,0.0,81,0.00,,,0.03,,2013-01-23 05:12:00,
2013-01-22 23:22:00,51.0,46.0,30.26,West,279,0.0,1.0,82,0.00,,,0.03,,2013-01-23 05:22:00,
2013-01-22 23:33:00,51.0,46.0,30.26,West,275,0.0,1.0,84,0.00,,,0.03,,2013-01-23 05:33:00,
2013-01-22 23:43:00,51.0,46.0,30.26,West,275,0.0,1.0,84,0.00,,,0.03,,2013-01-23 05:43:00,
2013-01-22 23:53:00,51.0,46.0,30.26,West,275,0.0,1.0,84,0.00,,,0.03,,2013-01-23 05:53:00,